sensor_id;sensor_type;location;lat;lon;timestamp;P1;durP1;ratioP1;P2;durP2;ratioP2
6378;SDS011;3222;48.858;10.128;2024-01-15T00:00:18;42.67;;;24.40;;
6378;SDS011;3222;48.858;10.128;2024-01-15T00:02:44;44.50;;;22.30;;
6378;SDS011;3222;48.858;10.128;2024-01-15T00:05:10;41.63;;;23.20;;
6378;SDS011;3222;48.858;10.128;2024-01-15T00:07:36;41.23;;;21.50;;
6378;SDS011;3222;48.858;10.128;2024-01-15T00:10:02;41.40;;;21.73;;
6378;SDS011;3222;48.858;10.128;2024-01-15T00:12:28;39.57;;;20.43;;
6378;SDS011;3222;48.858;10.128;2024-01-15T00:14:53;39.60;;;21.17;;
6378;SDS011;3222;48.858;10.128;2024-01-15T00:17:19;38.77;;;21.23;;
6378;SDS011;3222;48.858;10.128;2024-01-15T00:19:45;39.53;;;20.83;;
6378;SDS011;3222;48.858;10.128;2024-01-15T00:22:11;43.17;;;21.93;;
6378;SDS011;3222;48.858;10.128;2024-01-15T00:24:37;39.33;;;20.57;;
6378;SDS011;3222;48.858;10.128;2024-01-15T00:27:02;39.07;;;21.37;;
6378;SDS011;3222;48.858;10.128;2024-01-15T00:29:28;42.23;;;21.00;;
6378;SDS011;3222;48.858;10.128;2024-01-15T00:31:54;38.90;;;21.70;;
6378;SDS011;3222;48.858;10.128;2024-01-15T00:34:19;38.67;;;21.33;;
6378;SDS011;3222;48.858;10.128;2024-01-15T00:36:45;37.50;;;20.20;;
6378;SDS011;3222;48.858;10.128;2024-01-15T00:39:11;39.17;;;20.93;;
6378;SDS011;3222;48.858;10.128;2024-01-15T00:41:37;35.93;;;19.97;;
6378;SDS011;3222;48.858;10.128;2024-01-15T00:44:02;37.00;;;19.87;;
6378;SDS011;3222;48.858;10.128;2024-01-15T00:46:28;39.23;;;20.43;;
6378;SDS011;3222;48.858;10.128;2024-01-15T00:48:54;39.27;;;20.00;;
6378;SDS011;3222;48.858;10.128;2024-01-15T00:51:19;37.20;;;20.33;;
6378;SDS011;3222;48.858;10.128;2024-01-15T00:53:45;40.33;;;21.27;;
6378;SDS011;3222;48.858;10.128;2024-01-15T00:56:11;38.50;;;20.60;;
6378;SDS011;3222;48.858;10.128;2024-01-15T00:58:37;38.00;;;20.70;;
6378;SDS011;3222;48.858;10.128;2024-01-15T01:01:02;37.20;;;21.03;;
6378;SDS011;3222;48.858;10.128;2024-01-15T01:03:28;34.83;;;19.63;;
6378;SDS011;3222;48.858;10.128;2024-01-15T01:05:54;38.00;;;21.13;;
6378;SDS011;3222;48.858;10.128;2024-01-15T01:08:19;41.23;;;22.57;;
6378;SDS011;3222;48.858;10.128;2024-01-15T01:10:45;38.50;;;21.77;;
6378;SDS011;3222;48.858;10.128;2024-01-15T01:13:11;38.37;;;20.63;;
6378;SDS011;3222;48.858;10.128;2024-01-15T01:15:36;41.83;;;22.10;;
6378;SDS011;3222;48.858;10.128;2024-01-15T01:18:03;32.53;;;18.90;;
6378;SDS011;3222;48.858;10.128;2024-01-15T01:20:29;37.77;;;21.27;;
6378;SDS011;3222;48.858;10.128;2024-01-15T01:22:55;44.57;;;21.83;;
6378;SDS011;3222;48.858;10.128;2024-01-15T01:25:21;77.83;;;32.67;;
6378;SDS011;3222;48.858;10.128;2024-01-15T01:27:46;57.40;;;27.30;;
6378;SDS011;3222;48.858;10.128;2024-01-15T01:30:12;47.37;;;24.53;;
6378;SDS011;3222;48.858;10.128;2024-01-15T01:32:38;43.57;;;21.50;;
6378;SDS011;3222;48.858;10.128;2024-01-15T01:35:04;43.10;;;23.63;;
6378;SDS011;3222;48.858;10.128;2024-01-15T01:37:30;40.63;;;22.10;;
6378;SDS011;3222;48.858;10.128;2024-01-15T01:39:55;42.00;;;22.43;;
6378;SDS011;3222;48.858;10.128;2024-01-15T01:42:21;44.37;;;22.63;;
6378;SDS011;3222;48.858;10.128;2024-01-15T01:44:47;41.77;;;22.67;;
6378;SDS011;3222;48.858;10.128;2024-01-15T01:47:12;39.00;;;21.73;;
6378;SDS011;3222;48.858;10.128;2024-01-15T01:49:39;39.20;;;21.33;;
6378;SDS011;3222;48.858;10.128;2024-01-15T01:52:06;42.13;;;22.87;;
6378;SDS011;3222;48.858;10.128;2024-01-15T01:54:32;47.93;;;25.47;;
6378;SDS011;3222;48.858;10.128;2024-01-15T01:56:58;54.23;;;27.17;;
6378;SDS011;3222;48.858;10.128;2024-01-15T01:59:28;40.07;;;22.50;;
6378;SDS011;3222;48.858;10.128;2024-01-15T02:01:55;44.13;;;24.67;;
6378;SDS011;3222;48.858;10.128;2024-01-15T02:04:24;43.10;;;23.20;;
6378;SDS011;3222;48.858;10.128;2024-01-15T02:06:50;45.60;;;25.70;;
6378;SDS011;3222;48.858;10.128;2024-01-15T02:09:19;53.70;;;29.37;;
6378;SDS011;3222;48.858;10.128;2024-01-15T02:11:48;62.03;;;34.97;;
6378;SDS011;3222;48.858;10.128;2024-01-15T02:14:14;50.33;;;28.47;;
6378;SDS011;3222;48.858;10.128;2024-01-15T02:16:40;38.33;;;22.03;;
6378;SDS011;3222;48.858;10.128;2024-01-15T02:19:06;36.70;;;21.20;;
6378;SDS011;3222;48.858;10.128;2024-01-15T02:21:32;39.43;;;20.97;;
6378;SDS011;3222;48.858;10.128;2024-01-15T02:23:58;45.20;;;23.90;;
6378;SDS011;3222;48.858;10.128;2024-01-15T02:26:24;50.07;;;25.00;;
6378;SDS011;3222;48.858;10.128;2024-01-15T02:28:50;40.37;;;22.63;;
6378;SDS011;3222;48.858;10.128;2024-01-15T02:31:16;42.10;;;21.70;;
6378;SDS011;3222;48.858;10.128;2024-01-15T02:33:42;38.57;;;20.40;;
6378;SDS011;3222;48.858;10.128;2024-01-15T02:36:11;36.70;;;18.50;;
6378;SDS011;3222;48.858;10.128;2024-01-15T02:38:37;33.87;;;18.90;;
6378;SDS011;3222;48.858;10.128;2024-01-15T02:41:03;42.13;;;22.30;;
6378;SDS011;3222;48.858;10.128;2024-01-15T02:43:29;46.63;;;23.00;;
6378;SDS011;3222;48.858;10.128;2024-01-15T02:45:54;41.43;;;20.27;;
6378;SDS011;3222;48.858;10.128;2024-01-15T02:48:20;44.80;;;23.87;;
6378;SDS011;3222;48.858;10.128;2024-01-15T02:50:46;41.63;;;21.40;;
6378;SDS011;3222;48.858;10.128;2024-01-15T02:53:11;40.93;;;20.90;;
6378;SDS011;3222;48.858;10.128;2024-01-15T02:55:37;35.00;;;19.20;;
6378;SDS011;3222;48.858;10.128;2024-01-15T02:58:03;49.27;;;24.20;;
6378;SDS011;3222;48.858;10.128;2024-01-15T03:00:29;35.40;;;19.50;;
6378;SDS011;3222;48.858;10.128;2024-01-15T03:02:55;35.67;;;19.07;;
6378;SDS011;3222;48.858;10.128;2024-01-15T03:05:20;29.60;;;16.17;;
6378;SDS011;3222;48.858;10.128;2024-01-15T03:07:46;30.27;;;15.63;;
6378;SDS011;3222;48.858;10.128;2024-01-15T03:10:12;29.03;;;15.80;;
6378;SDS011;3222;48.858;10.128;2024-01-15T03:12:38;26.17;;;14.40;;
6378;SDS011;3222;48.858;10.128;2024-01-15T03:15:04;35.20;;;18.23;;
6378;SDS011;3222;48.858;10.128;2024-01-15T03:17:30;39.60;;;18.10;;
6378;SDS011;3222;48.858;10.128;2024-01-15T03:19:56;53.37;;;22.87;;
6378;SDS011;3222;48.858;10.128;2024-01-15T03:22:21;42.47;;;21.27;;
6378;SDS011;3222;48.858;10.128;2024-01-15T03:24:47;34.83;;;17.23;;
6378;SDS011;3222;48.858;10.128;2024-01-15T03:27:12;42.80;;;18.87;;
6378;SDS011;3222;48.858;10.128;2024-01-15T03:29:39;35.47;;;18.03;;
6378;SDS011;3222;48.858;10.128;2024-01-15T03:32:05;35.53;;;17.17;;
6378;SDS011;3222;48.858;10.128;2024-01-15T03:34:31;58.37;;;20.40;;
6378;SDS011;3222;48.858;10.128;2024-01-15T03:36:57;44.10;;;18.47;;
6378;SDS011;3222;48.858;10.128;2024-01-15T03:39:24;38.87;;;16.80;;
6378;SDS011;3222;48.858;10.128;2024-01-15T03:41:50;38.37;;;16.40;;
6378;SDS011;3222;48.858;10.128;2024-01-15T03:44:16;35.57;;;16.03;;
6378;SDS011;3222;48.858;10.128;2024-01-15T03:46:41;34.93;;;15.90;;
6378;SDS011;3222;48.858;10.128;2024-01-15T03:49:07;29.67;;;14.70;;
6378;SDS011;3222;48.858;10.128;2024-01-15T03:51:33;26.10;;;14.47;;
6378;SDS011;3222;48.858;10.128;2024-01-15T03:53:58;26.20;;;13.20;;
6378;SDS011;3222;48.858;10.128;2024-01-15T03:56:24;22.23;;;13.00;;
6378;SDS011;3222;48.858;10.128;2024-01-15T03:58:50;24.97;;;12.60;;
6378;SDS011;3222;48.858;10.128;2024-01-15T04:01:15;23.73;;;13.37;;
6378;SDS011;3222;48.858;10.128;2024-01-15T04:03:41;21.20;;;12.50;;
6378;SDS011;3222;48.858;10.128;2024-01-15T04:06:07;19.20;;;12.03;;
6378;SDS011;3222;48.858;10.128;2024-01-15T04:08:32;18.07;;;12.10;;
6378;SDS011;3222;48.858;10.128;2024-01-15T04:10:58;20.47;;;12.73;;
6378;SDS011;3222;48.858;10.128;2024-01-15T04:13:24;18.57;;;11.80;;
6378;SDS011;3222;48.858;10.128;2024-01-15T04:15:49;19.33;;;11.80;;
6378;SDS011;3222;48.858;10.128;2024-01-15T04:18:15;21.07;;;12.87;;
6378;SDS011;3222;48.858;10.128;2024-01-15T04:20:42;18.20;;;11.80;;
6378;SDS011;3222;48.858;10.128;2024-01-15T04:23:08;16.97;;;10.47;;
6378;SDS011;3222;48.858;10.128;2024-01-15T04:25:34;17.80;;;10.93;;
6378;SDS011;3222;48.858;10.128;2024-01-15T04:28:00;20.13;;;11.70;;
6378;SDS011;3222;48.858;10.128;2024-01-15T04:30:26;19.30;;;11.27;;
6378;SDS011;3222;48.858;10.128;2024-01-15T04:32:52;18.50;;;11.47;;
6378;SDS011;3222;48.858;10.128;2024-01-15T04:35:17;18.53;;;11.73;;
6378;SDS011;3222;48.858;10.128;2024-01-15T04:37:43;17.63;;;10.27;;
6378;SDS011;3222;48.858;10.128;2024-01-15T04:40:09;17.97;;;11.30;;
6378;SDS011;3222;48.858;10.128;2024-01-15T04:42:35;17.73;;;11.93;;
6378;SDS011;3222;48.858;10.128;2024-01-15T04:45:00;18.20;;;11.47;;
6378;SDS011;3222;48.858;10.128;2024-01-15T04:47:26;15.93;;;10.13;;
6378;SDS011;3222;48.858;10.128;2024-01-15T04:49:51;17.17;;;11.00;;
6378;SDS011;3222;48.858;10.128;2024-01-15T04:52:17;16.47;;;9.93;;
6378;SDS011;3222;48.858;10.128;2024-01-15T04:54:43;15.77;;;9.87;;
6378;SDS011;3222;48.858;10.128;2024-01-15T04:57:09;16.67;;;10.27;;
6378;SDS011;3222;48.858;10.128;2024-01-15T04:59:34;17.20;;;10.67;;
6378;SDS011;3222;48.858;10.128;2024-01-15T05:02:00;16.90;;;9.87;;
6378;SDS011;3222;48.858;10.128;2024-01-15T05:04:25;19.53;;;10.37;;
6378;SDS011;3222;48.858;10.128;2024-01-15T05:06:53;16.60;;;10.50;;
6378;SDS011;3222;48.858;10.128;2024-01-15T05:09:18;17.93;;;10.70;;
6378;SDS011;3222;48.858;10.128;2024-01-15T05:11:44;18.47;;;10.13;;
6378;SDS011;3222;48.858;10.128;2024-01-15T05:14:10;18.13;;;10.57;;
6378;SDS011;3222;48.858;10.128;2024-01-15T05:16:38;17.30;;;9.80;;
6378;SDS011;3222;48.858;10.128;2024-01-15T05:19:04;16.93;;;10.23;;
6378;SDS011;3222;48.858;10.128;2024-01-15T05:21:29;19.43;;;10.73;;
6378;SDS011;3222;48.858;10.128;2024-01-15T05:23:55;16.63;;;10.03;;
6378;SDS011;3222;48.858;10.128;2024-01-15T05:26:21;15.73;;;9.80;;
6378;SDS011;3222;48.858;10.128;2024-01-15T05:28:46;16.10;;;9.80;;
6378;SDS011;3222;48.858;10.128;2024-01-15T05:31:12;15.73;;;9.97;;
6378;SDS011;3222;48.858;10.128;2024-01-15T05:33:38;17.47;;;11.10;;
6378;SDS011;3222;48.858;10.128;2024-01-15T05:36:04;18.40;;;10.17;;
6378;SDS011;3222;48.858;10.128;2024-01-15T05:38:30;18.23;;;10.87;;
6378;SDS011;3222;48.858;10.128;2024-01-15T05:40:56;19.20;;;10.77;;
6378;SDS011;3222;48.858;10.128;2024-01-15T05:43:21;16.83;;;9.90;;
6378;SDS011;3222;48.858;10.128;2024-01-15T05:45:47;15.80;;;9.60;;
6378;SDS011;3222;48.858;10.128;2024-01-15T05:48:12;17.77;;;10.23;;
6378;SDS011;3222;48.858;10.128;2024-01-15T05:50:38;16.13;;;10.23;;
6378;SDS011;3222;48.858;10.128;2024-01-15T05:53:04;16.50;;;10.27;;
6378;SDS011;3222;48.858;10.128;2024-01-15T05:55:30;18.47;;;10.60;;
6378;SDS011;3222;48.858;10.128;2024-01-15T05:57:55;18.03;;;10.20;;
6378;SDS011;3222;48.858;10.128;2024-01-15T06:00:21;20.53;;;10.87;;
6378;SDS011;3222;48.858;10.128;2024-01-15T06:02:47;22.53;;;12.50;;
6378;SDS011;3222;48.858;10.128;2024-01-15T06:05:13;21.80;;;13.07;;
6378;SDS011;3222;48.858;10.128;2024-01-15T06:07:39;23.17;;;12.73;;
6378;SDS011;3222;48.858;10.128;2024-01-15T06:10:05;25.80;;;13.67;;
6378;SDS011;3222;48.858;10.128;2024-01-15T06:12:31;30.40;;;15.67;;
6378;SDS011;3222;48.858;10.128;2024-01-15T06:14:57;34.67;;;17.57;;
6378;SDS011;3222;48.858;10.128;2024-01-15T06:17:23;29.43;;;15.30;;
6378;SDS011;3222;48.858;10.128;2024-01-15T06:19:49;49.57;;;22.93;;
6378;SDS011;3222;48.858;10.128;2024-01-15T06:22:14;35.73;;;17.20;;
6378;SDS011;3222;48.858;10.128;2024-01-15T06:24:41;37.20;;;17.50;;
6378;SDS011;3222;48.858;10.128;2024-01-15T06:27:07;33.73;;;16.97;;
6378;SDS011;3222;48.858;10.128;2024-01-15T06:29:33;28.03;;;14.53;;
6378;SDS011;3222;48.858;10.128;2024-01-15T06:32:02;24.83;;;13.27;;
6378;SDS011;3222;48.858;10.128;2024-01-15T06:34:28;23.43;;;12.67;;
6378;SDS011;3222;48.858;10.128;2024-01-15T06:36:54;25.70;;;13.67;;
6378;SDS011;3222;48.858;10.128;2024-01-15T06:39:19;24.67;;;14.13;;
6378;SDS011;3222;48.858;10.128;2024-01-15T06:41:45;25.07;;;14.37;;
6378;SDS011;3222;48.858;10.128;2024-01-15T06:44:11;23.00;;;13.17;;
6378;SDS011;3222;48.858;10.128;2024-01-15T06:46:41;21.27;;;12.77;;
6378;SDS011;3222;48.858;10.128;2024-01-15T06:49:08;23.20;;;14.30;;
6378;SDS011;3222;48.858;10.128;2024-01-15T06:51:33;19.80;;;12.33;;
6378;SDS011;3222;48.858;10.128;2024-01-15T06:53:59;24.87;;;13.70;;
6378;SDS011;3222;48.858;10.128;2024-01-15T06:56:25;21.50;;;12.17;;
6378;SDS011;3222;48.858;10.128;2024-01-15T06:58:51;19.73;;;12.67;;
6378;SDS011;3222;48.858;10.128;2024-01-15T07:01:16;24.67;;;12.80;;
6378;SDS011;3222;48.858;10.128;2024-01-15T07:03:42;21.47;;;11.87;;
6378;SDS011;3222;48.858;10.128;2024-01-15T07:06:07;18.80;;;11.53;;
6378;SDS011;3222;48.858;10.128;2024-01-15T07:08:33;21.87;;;13.03;;
6378;SDS011;3222;48.858;10.128;2024-01-15T07:10:59;24.20;;;13.37;;
6378;SDS011;3222;48.858;10.128;2024-01-15T07:13:24;22.77;;;12.40;;
6378;SDS011;3222;48.858;10.128;2024-01-15T07:15:50;22.67;;;12.80;;
6378;SDS011;3222;48.858;10.128;2024-01-15T07:18:15;20.63;;;13.20;;
6378;SDS011;3222;48.858;10.128;2024-01-15T07:20:41;23.40;;;13.07;;
6378;SDS011;3222;48.858;10.128;2024-01-15T07:23:07;20.67;;;12.70;;
6378;SDS011;3222;48.858;10.128;2024-01-15T07:25:32;21.17;;;12.60;;
6378;SDS011;3222;48.858;10.128;2024-01-15T07:27:58;19.30;;;11.80;;
6378;SDS011;3222;48.858;10.128;2024-01-15T07:30:24;18.30;;;12.03;;
6378;SDS011;3222;48.858;10.128;2024-01-15T07:32:50;21.00;;;12.57;;
6378;SDS011;3222;48.858;10.128;2024-01-15T07:35:16;19.17;;;12.43;;
6378;SDS011;3222;48.858;10.128;2024-01-15T07:37:41;19.87;;;12.00;;
6378;SDS011;3222;48.858;10.128;2024-01-15T07:40:07;23.73;;;13.77;;
6378;SDS011;3222;48.858;10.128;2024-01-15T07:42:34;22.27;;;13.47;;
6378;SDS011;3222;48.858;10.128;2024-01-15T07:45:00;24.90;;;13.67;;
6378;SDS011;3222;48.858;10.128;2024-01-15T07:47:26;26.17;;;14.13;;
6378;SDS011;3222;48.858;10.128;2024-01-15T07:49:52;21.67;;;13.03;;
6378;SDS011;3222;48.858;10.128;2024-01-15T07:52:18;23.33;;;14.63;;
6378;SDS011;3222;48.858;10.128;2024-01-15T07:54:44;21.57;;;13.07;;
6378;SDS011;3222;48.858;10.128;2024-01-15T07:57:10;20.83;;;12.83;;
6378;SDS011;3222;48.858;10.128;2024-01-15T07:59:36;21.00;;;12.63;;
6378;SDS011;3222;48.858;10.128;2024-01-15T08:02:02;16.20;;;11.27;;
6378;SDS011;3222;48.858;10.128;2024-01-15T08:04:28;18.70;;;12.17;;
6378;SDS011;3222;48.858;10.128;2024-01-15T08:06:54;19.50;;;11.50;;
6378;SDS011;3222;48.858;10.128;2024-01-15T08:09:19;19.13;;;11.03;;
6378;SDS011;3222;48.858;10.128;2024-01-15T08:11:45;18.27;;;11.13;;
6378;SDS011;3222;48.858;10.128;2024-01-15T08:14:11;18.23;;;11.40;;
6378;SDS011;3222;48.858;10.128;2024-01-15T08:16:38;19.33;;;11.73;;
6378;SDS011;3222;48.858;10.128;2024-01-15T08:19:04;22.47;;;12.97;;
6378;SDS011;3222;48.858;10.128;2024-01-15T08:21:29;23.17;;;12.97;;
6378;SDS011;3222;48.858;10.128;2024-01-15T08:23:57;20.83;;;13.03;;
6378;SDS011;3222;48.858;10.128;2024-01-15T08:26:23;19.00;;;12.40;;
6378;SDS011;3222;48.858;10.128;2024-01-15T08:28:49;21.13;;;13.33;;
6378;SDS011;3222;48.858;10.128;2024-01-15T08:31:14;22.50;;;13.83;;
6378;SDS011;3222;48.858;10.128;2024-01-15T08:33:40;19.07;;;11.97;;
6378;SDS011;3222;48.858;10.128;2024-01-15T08:36:06;18.47;;;11.47;;
6378;SDS011;3222;48.858;10.128;2024-01-15T08:38:32;17.10;;;11.00;;
6378;SDS011;3222;48.858;10.128;2024-01-15T08:40:57;15.23;;;10.70;;
6378;SDS011;3222;48.858;10.128;2024-01-15T08:43:25;16.10;;;10.93;;
6378;SDS011;3222;48.858;10.128;2024-01-15T08:45:51;18.27;;;11.70;;
6378;SDS011;3222;48.858;10.128;2024-01-15T08:48:17;18.00;;;11.60;;
6378;SDS011;3222;48.858;10.128;2024-01-15T08:50:43;18.40;;;11.30;;
6378;SDS011;3222;48.858;10.128;2024-01-15T08:53:11;19.10;;;11.67;;
6378;SDS011;3222;48.858;10.128;2024-01-15T08:55:37;17.13;;;11.10;;
6378;SDS011;3222;48.858;10.128;2024-01-15T08:58:03;16.83;;;11.37;;
6378;SDS011;3222;48.858;10.128;2024-01-15T09:00:29;17.33;;;11.23;;
6378;SDS011;3222;48.858;10.128;2024-01-15T09:02:55;18.07;;;11.63;;
6378;SDS011;3222;48.858;10.128;2024-01-15T09:05:21;15.87;;;10.70;;
6378;SDS011;3222;48.858;10.128;2024-01-15T09:07:47;16.00;;;10.43;;
6378;SDS011;3222;48.858;10.128;2024-01-15T09:10:13;19.00;;;12.20;;
6378;SDS011;3222;48.858;10.128;2024-01-15T09:12:39;17.57;;;12.07;;
6378;SDS011;3222;48.858;10.128;2024-01-15T09:15:05;19.93;;;11.70;;
6378;SDS011;3222;48.858;10.128;2024-01-15T09:17:31;19.93;;;12.07;;
6378;SDS011;3222;48.858;10.128;2024-01-15T09:19:57;16.33;;;10.73;;
6378;SDS011;3222;48.858;10.128;2024-01-15T09:22:23;15.53;;;10.87;;
6378;SDS011;3222;48.858;10.128;2024-01-15T09:24:48;15.97;;;11.00;;
6378;SDS011;3222;48.858;10.128;2024-01-15T09:27:14;15.47;;;10.27;;
6378;SDS011;3222;48.858;10.128;2024-01-15T09:29:40;13.80;;;9.10;;
6378;SDS011;3222;48.858;10.128;2024-01-15T09:32:07;15.90;;;10.70;;
6378;SDS011;3222;48.858;10.128;2024-01-15T09:34:36;16.33;;;10.30;;
6378;SDS011;3222;48.858;10.128;2024-01-15T09:37:01;15.63;;;10.37;;
6378;SDS011;3222;48.858;10.128;2024-01-15T09:39:28;14.17;;;9.90;;
6378;SDS011;3222;48.858;10.128;2024-01-15T09:41:54;17.00;;;10.00;;
6378;SDS011;3222;48.858;10.128;2024-01-15T09:44:20;15.40;;;9.90;;
6378;SDS011;3222;48.858;10.128;2024-01-15T09:46:46;13.70;;;9.53;;
6378;SDS011;3222;48.858;10.128;2024-01-15T09:49:15;13.23;;;9.23;;
6378;SDS011;3222;48.858;10.128;2024-01-15T09:51:41;15.17;;;9.57;;
6378;SDS011;3222;48.858;10.128;2024-01-15T09:54:07;11.33;;;8.80;;
6378;SDS011;3222;48.858;10.128;2024-01-15T09:56:34;13.00;;;9.00;;
6378;SDS011;3222;48.858;10.128;2024-01-15T09:59:00;12.87;;;9.17;;
6378;SDS011;3222;48.858;10.128;2024-01-15T10:01:26;14.80;;;10.00;;
6378;SDS011;3222;48.858;10.128;2024-01-15T10:03:54;15.63;;;9.17;;
6378;SDS011;3222;48.858;10.128;2024-01-15T10:06:19;13.43;;;9.03;;
6378;SDS011;3222;48.858;10.128;2024-01-15T10:08:47;13.23;;;9.20;;
6378;SDS011;3222;48.858;10.128;2024-01-15T10:11:16;15.53;;;9.90;;
6378;SDS011;3222;48.858;10.128;2024-01-15T10:13:43;13.83;;;9.30;;
6378;SDS011;3222;48.858;10.128;2024-01-15T10:16:09;14.30;;;9.50;;
6378;SDS011;3222;48.858;10.128;2024-01-15T10:18:36;12.83;;;9.00;;
6378;SDS011;3222;48.858;10.128;2024-01-15T10:21:08;19.03;;;10.47;;
6378;SDS011;3222;48.858;10.128;2024-01-15T10:23:33;14.00;;;9.93;;
6378;SDS011;3222;48.858;10.128;2024-01-15T10:25:59;15.87;;;9.17;;
6378;SDS011;3222;48.858;10.128;2024-01-15T10:28:28;14.87;;;10.23;;
6378;SDS011;3222;48.858;10.128;2024-01-15T10:30:56;14.90;;;9.53;;
6378;SDS011;3222;48.858;10.128;2024-01-15T10:33:26;14.97;;;10.03;;
6378;SDS011;3222;48.858;10.128;2024-01-15T10:35:59;17.37;;;8.87;;
6378;SDS011;3222;48.858;10.128;2024-01-15T10:38:26;12.57;;;8.83;;
6378;SDS011;3222;48.858;10.128;2024-01-15T10:40:55;13.33;;;9.17;;
6378;SDS011;3222;48.858;10.128;2024-01-15T10:43:22;15.00;;;8.70;;
6378;SDS011;3222;48.858;10.128;2024-01-15T10:45:48;11.73;;;8.33;;
6378;SDS011;3222;48.858;10.128;2024-01-15T10:48:16;13.93;;;8.77;;
6378;SDS011;3222;48.858;10.128;2024-01-15T10:50:44;12.30;;;7.83;;
6378;SDS011;3222;48.858;10.128;2024-01-15T10:53:11;14.93;;;8.63;;
6378;SDS011;3222;48.858;10.128;2024-01-15T10:55:38;12.70;;;7.73;;
6378;SDS011;3222;48.858;10.128;2024-01-15T10:58:07;11.43;;;8.13;;
6378;SDS011;3222;48.858;10.128;2024-01-15T11:00:37;12.53;;;8.63;;
6378;SDS011;3222;48.858;10.128;2024-01-15T11:03:04;13.63;;;8.10;;
6378;SDS011;3222;48.858;10.128;2024-01-15T11:05:36;12.63;;;8.10;;
6378;SDS011;3222;48.858;10.128;2024-01-15T11:08:09;11.77;;;7.77;;
6378;SDS011;3222;48.858;10.128;2024-01-15T11:10:50;13.37;;;8.23;;
6378;SDS011;3222;48.858;10.128;2024-01-15T11:16:02;9.83;;;7.33;;
6378;SDS011;3222;48.858;10.128;2024-01-15T11:18:29;10.73;;;7.53;;
6378;SDS011;3222;48.858;10.128;2024-01-15T11:26:35;11.90;;;7.73;;
6378;SDS011;3222;48.858;10.128;2024-01-15T11:29:28;11.00;;;7.50;;
6378;SDS011;3222;48.858;10.128;2024-01-15T11:34:20;12.00;;;7.30;;
6378;SDS011;3222;48.858;10.128;2024-01-15T11:41:56;10.00;;;6.90;;
6378;SDS011;3222;48.858;10.128;2024-01-15T11:44:23;12.30;;;7.17;;
6378;SDS011;3222;48.858;10.128;2024-01-15T11:46:57;10.23;;;7.03;;
6378;SDS011;3222;48.858;10.128;2024-01-15T11:52:07;8.73;;;7.07;;
6378;SDS011;3222;48.858;10.128;2024-01-15T11:54:37;11.10;;;7.30;;
6378;SDS011;3222;48.858;10.128;2024-01-15T11:57:09;9.70;;;6.87;;
6378;SDS011;3222;48.858;10.128;2024-01-15T11:59:40;8.90;;;6.60;;
6378;SDS011;3222;48.858;10.128;2024-01-15T12:02:06;7.00;;;6.07;;
6378;SDS011;3222;48.858;10.128;2024-01-15T12:04:32;8.80;;;6.80;;
6378;SDS011;3222;48.858;10.128;2024-01-15T12:06:58;7.93;;;6.40;;
6378;SDS011;3222;48.858;10.128;2024-01-15T12:09:24;9.27;;;6.80;;
6378;SDS011;3222;48.858;10.128;2024-01-15T12:11:54;7.90;;;6.33;;
6378;SDS011;3222;48.858;10.128;2024-01-15T12:14:30;8.27;;;6.30;;
6378;SDS011;3222;48.858;10.128;2024-01-15T12:16:57;10.37;;;7.03;;
6378;SDS011;3222;48.858;10.128;2024-01-15T12:19:22;10.73;;;7.10;;
6378;SDS011;3222;48.858;10.128;2024-01-15T12:21:50;10.00;;;7.40;;
6378;SDS011;3222;48.858;10.128;2024-01-15T12:24:16;8.67;;;6.93;;
6378;SDS011;3222;48.858;10.128;2024-01-15T12:26:42;9.47;;;7.00;;
6378;SDS011;3222;48.858;10.128;2024-01-15T12:29:10;9.07;;;6.70;;
6378;SDS011;3222;48.858;10.128;2024-01-15T12:31:36;8.70;;;6.67;;
6378;SDS011;3222;48.858;10.128;2024-01-15T12:34:02;8.00;;;6.57;;
6378;SDS011;3222;48.858;10.128;2024-01-15T12:36:30;7.97;;;6.40;;
6378;SDS011;3222;48.858;10.128;2024-01-15T12:38:59;8.87;;;6.87;;
6378;SDS011;3222;48.858;10.128;2024-01-15T12:41:25;9.20;;;6.67;;
6378;SDS011;3222;48.858;10.128;2024-01-15T12:43:50;10.07;;;7.17;;
6378;SDS011;3222;48.858;10.128;2024-01-15T12:46:16;9.00;;;7.00;;
6378;SDS011;3222;48.858;10.128;2024-01-15T12:48:44;7.67;;;6.30;;
6378;SDS011;3222;48.858;10.128;2024-01-15T12:51:09;9.03;;;6.50;;
6378;SDS011;3222;48.858;10.128;2024-01-15T12:53:35;14.00;;;6.93;;
6378;SDS011;3222;48.858;10.128;2024-01-15T12:56:01;10.23;;;7.23;;
6378;SDS011;3222;48.858;10.128;2024-01-15T12:58:27;8.60;;;6.80;;
6378;SDS011;3222;48.858;10.128;2024-01-15T13:00:53;9.17;;;6.13;;
6378;SDS011;3222;48.858;10.128;2024-01-15T13:03:18;9.20;;;6.50;;
6378;SDS011;3222;48.858;10.128;2024-01-15T13:05:44;11.53;;;7.20;;
6378;SDS011;3222;48.858;10.128;2024-01-15T13:08:10;10.27;;;6.83;;
6378;SDS011;3222;48.858;10.128;2024-01-15T13:10:36;9.30;;;7.17;;
6378;SDS011;3222;48.858;10.128;2024-01-15T13:13:01;10.77;;;7.23;;
6378;SDS011;3222;48.858;10.128;2024-01-15T13:15:27;10.37;;;7.20;;
6378;SDS011;3222;48.858;10.128;2024-01-15T13:17:53;10.03;;;7.07;;
6378;SDS011;3222;48.858;10.128;2024-01-15T13:20:19;10.17;;;7.40;;
6378;SDS011;3222;48.858;10.128;2024-01-15T13:22:44;11.53;;;8.13;;
6378;SDS011;3222;48.858;10.128;2024-01-15T13:25:11;11.77;;;7.33;;
6378;SDS011;3222;48.858;10.128;2024-01-15T13:27:37;9.63;;;7.17;;
6378;SDS011;3222;48.858;10.128;2024-01-15T13:30:03;8.00;;;6.87;;
6378;SDS011;3222;48.858;10.128;2024-01-15T13:32:29;8.10;;;6.73;;
6378;SDS011;3222;48.858;10.128;2024-01-15T13:34:55;8.93;;;6.90;;
6378;SDS011;3222;48.858;10.128;2024-01-15T13:37:21;9.07;;;6.90;;
6378;SDS011;3222;48.858;10.128;2024-01-15T13:39:49;11.37;;;7.17;;
6378;SDS011;3222;48.858;10.128;2024-01-15T13:42:16;8.80;;;6.10;;
6378;SDS011;3222;48.858;10.128;2024-01-15T13:44:42;9.43;;;6.47;;
6378;SDS011;3222;48.858;10.128;2024-01-15T13:47:08;8.03;;;6.30;;
6378;SDS011;3222;48.858;10.128;2024-01-15T13:49:34;8.83;;;6.67;;
6378;SDS011;3222;48.858;10.128;2024-01-15T13:52:01;7.40;;;5.60;;
6378;SDS011;3222;48.858;10.128;2024-01-15T13:54:29;13.10;;;8.47;;
6378;SDS011;3222;48.858;10.128;2024-01-15T13:56:55;14.33;;;8.97;;
6378;SDS011;3222;48.858;10.128;2024-01-15T13:59:21;12.47;;;8.47;;
6378;SDS011;3222;48.858;10.128;2024-01-15T14:01:46;18.37;;;10.30;;
6378;SDS011;3222;48.858;10.128;2024-01-15T14:04:12;16.57;;;10.40;;
6378;SDS011;3222;48.858;10.128;2024-01-15T14:06:38;20.50;;;11.50;;
6378;SDS011;3222;48.858;10.128;2024-01-15T14:09:04;29.10;;;15.20;;
6378;SDS011;3222;48.858;10.128;2024-01-15T14:11:30;38.47;;;18.63;;
6378;SDS011;3222;48.858;10.128;2024-01-15T14:13:56;40.87;;;19.43;;
6378;SDS011;3222;48.858;10.128;2024-01-15T14:16:22;36.70;;;18.13;;
6378;SDS011;3222;48.858;10.128;2024-01-15T14:18:47;29.93;;;15.67;;
6378;SDS011;3222;48.858;10.128;2024-01-15T14:21:13;22.00;;;13.07;;
6378;SDS011;3222;48.858;10.128;2024-01-15T14:23:39;20.60;;;12.27;;
6378;SDS011;3222;48.858;10.128;2024-01-15T14:26:05;17.40;;;10.70;;
6378;SDS011;3222;48.858;10.128;2024-01-15T14:28:31;13.87;;;9.13;;
6378;SDS011;3222;48.858;10.128;2024-01-15T14:30:56;8.93;;;6.53;;
6378;SDS011;3222;48.858;10.128;2024-01-15T14:33:25;7.60;;;6.37;;
6378;SDS011;3222;48.858;10.128;2024-01-15T14:35:51;6.90;;;6.10;;
6378;SDS011;3222;48.858;10.128;2024-01-15T14:38:17;6.90;;;5.57;;
6378;SDS011;3222;48.858;10.128;2024-01-15T14:40:43;6.33;;;5.40;;
6378;SDS011;3222;48.858;10.128;2024-01-15T14:43:09;7.03;;;5.60;;
6378;SDS011;3222;48.858;10.128;2024-01-15T14:45:36;6.30;;;5.70;;
6378;SDS011;3222;48.858;10.128;2024-01-15T14:48:01;6.30;;;5.40;;
6378;SDS011;3222;48.858;10.128;2024-01-15T14:50:27;5.97;;;5.37;;
6378;SDS011;3222;48.858;10.128;2024-01-15T14:52:53;5.80;;;5.20;;